Time;durP1;ratioP1;P1;durP2;ratioP2;P2;SDS_P1;SDS_P2;PMS_P1;PMS_P2;Temp;Humidity;BMP_temperature;BMP_pressure;BME280_temperature;BME280_humidity;BME280_pressure;Samples;Min_cycle;Max_cycle;Signal;HPM_P1;HPM_P2
2021/04/06 00:02:00;;;;;;;6.47;2.97;;;2.30;99.90;;;;;;5056222;28;20202;-71
2021/04/06 00:04:33;;;;;;;6.03;3.33;;;2.30;99.90;;;;;;5060869;28;20252;-72
2021/04/06 00:07:04;;;;;;;6.07;3.10;;;2.30;99.90;;;;;;5053612;28;20293;-73
2021/04/06 00:09:33;;;;;;;6.30;3.13;;;2.30;99.90;;;;;;5054072;28;20201;-71
2021/04/06 00:12:02;;;;;;;5.10;3.23;;;2.40;99.90;;;;;;5054453;28;20214;-71
2021/04/06 00:14:30;;;;;;;4.40;2.83;;;2.30;99.90;;;;;;5053609;28;20300;-71
2021/04/06 00:17:00;;;;;;;8.80;3.50;;;2.40;99.90;;;;;;5054661;28;20293;-71
2021/04/06 00:19:29;;;;;;;8.60;3.70;;;2.40;99.90;;;;;;5055491;28;20214;-73
2021/04/06 00:22:00;;;;;;;13.30;3.33;;;2.40;99.90;;;;;;5061240;28;20222;-72
2021/04/06 00:24:30;;;;;;;5.93;3.20;;;2.30;99.90;;;;;;5056740;28;20210;-73
2021/04/06 00:27:12;;;;;;;6.67;2.80;;;2.40;99.90;;;;;;5058208;28;20210;-72
2021/04/06 00:29:41;;;;;;;5.73;3.23;;;2.30;99.90;;;;;;5057035;28;20658;-73
2021/04/06 00:32:09;;;;;;;7.43;3.43;;;2.40;99.90;;;;;;5058176;28;20236;-71
2021/04/06 00:34:37;;;;;;;4.97;3.23;;;2.40;99.90;;;;;;5059211;28;20294;-73
2021/04/06 00:37:07;;;;;;;5.50;3.30;;;2.40;99.90;;;;;;5056939;28;20213;-72
2021/04/06 00:39:36;;;;;;;6.97;3.77;;;2.40;99.90;;;;;;5053316;28;20301;-72
2021/04/06 00:42:06;;;;;;;7.50;3.67;;;2.30;99.90;;;;;;5055844;28;20283;-73
2021/04/06 00:44:37;;;;;;;6.23;3.10;;;2.40;99.90;;;;;;5058392;28;20214;-72
2021/04/06 00:47:04;;;;;;;5.10;2.97;;;2.30;99.90;;;;;;5061564;28;20205;-72
2021/04/06 00:49:33;;;;;;;7.03;3.20;;;2.30;99.90;;;;;;5051283;28;20216;-71
2021/04/06 00:52:04;;;;;;;6.77;3.30;;;2.20;99.90;;;;;;5053608;28;20210;-72
2021/04/06 00:54:34;;;;;;;7.77;3.30;;;2.20;99.90;;;;;;5059980;28;20292;-71
2021/04/06 00:57:03;;;;;;;7.77;3.30;;;2.20;99.90;;;;;;5056085;28;20210;-71
2021/04/06 00:59:31;;;;;;;6.23;3.40;;;2.10;99.90;;;;;;5059937;28;20236;-72
2021/04/06 01:01:59;;;;;;;5.70;2.90;;;2.10;99.90;;;;;;5060178;28;20206;-70
2021/04/06 01:04:27;;;;;;;6.43;3.20;;;2.10;99.90;;;;;;5055651;28;20226;-71
2021/04/06 01:07:08;;;;;;;6.30;2.97;;;2.00;99.90;;;;;;5053781;28;20206;-70
2021/04/06 01:09:43;;;;;;;5.80;2.90;;;2.00;99.90;;;;;;5053590;28;20673;-71
2021/04/06 01:12:10;;;;;;;7.43;3.70;;;2.00;99.90;;;;;;5060179;28;20203;-70
2021/04/06 01:14:38;;;;;;;5.03;3.23;;;2.00;99.90;;;;;;5057211;28;20242;-69
2021/04/06 01:17:06;;;;;;;6.17;3.17;;;2.00;99.90;;;;;;5050520;28;20263;-70
2021/04/06 01:19:33;;;;;;;5.23;3.23;;;2.00;99.90;;;;;;5055186;28;20206;-70
2021/04/06 01:22:05;;;;;;;3.90;2.53;;;2.00;99.90;;;;;;5063529;28;20296;-70
2021/04/06 01:24:32;;;;;;;3.83;2.97;;;2.00;99.90;;;;;;5056390;28;20241;-71
2021/04/06 01:27:00;;;;;;;6.13;3.10;;;2.00;99.90;;;;;;5054122;28;20228;-70
2021/04/06 01:29:27;;;;;;;7.53;2.87;;;1.90;99.90;;;;;;5055536;28;20206;-71
2021/04/06 01:31:55;;;;;;;5.10;2.43;;;1.90;99.90;;;;;;5054462;28;20205;-70
2021/04/06 01:34:22;;;;;;;4.83;2.73;;;1.90;99.90;;;;;;5054426;28;20209;-70
2021/04/06 01:36:50;;;;;;;5.87;3.40;;;1.90;99.90;;;;;;5057376;28;20240;-70
2021/04/06 01:39:19;;;;;;;6.43;2.47;;;1.90;99.90;;;;;;5051207;28;20202;-70
2021/04/06 01:41:49;;;;;;;7.63;2.87;;;1.90;99.90;;;;;;5054298;28;20227;-70
2021/04/06 01:44:15;;;;;;;7.13;2.60;;;1.90;99.90;;;;;;5053623;28;20618;-71
2021/04/06 01:46:43;;;;;;;6.43;2.73;;;1.90;99.90;;;;;;5057693;28;20202;-70
2021/04/06 01:49:10;;;;;;;4.93;2.50;;;1.90;99.90;;;;;;5056978;28;20212;-70
2021/04/06 01:51:38;;;;;;;5.33;2.77;;;1.90;99.90;;;;;;5049554;28;20327;-71
2021/04/06 01:54:06;;;;;;;4.63;2.37;;;1.90;99.90;;;;;;5059659;28;20338;-71
2021/04/06 01:56:39;;;;;;;4.30;2.33;;;1.90;99.90;;;;;;5051548;28;20209;-72
2021/04/06 01:59:10;;;;;;;6.57;2.87;;;1.90;99.90;;;;;;5049245;28;20233;-70
2021/04/06 02:01:38;;;;;;;6.87;2.67;;;1.90;99.90;;;;;;5055517;28;20201;-70
2021/04/06 02:04:07;;;;;;;5.83;2.33;;;2.00;99.90;;;;;;5059126;28;20248;-70
2021/04/06 02:06:36;;;;;;;4.57;2.13;;;2.00;99.90;;;;;;5051117;28;20214;-70
2021/04/06 02:09:06;;;;;;;5.17;2.50;;;2.00;99.90;;;;;;5049359;28;20213;-69
2021/04/06 02:11:35;;;;;;;4.50;2.23;;;2.00;99.90;;;;;;5051842;28;20262;-69
2021/04/06 02:14:07;;;;;;;4.53;2.33;;;2.00;99.90;;;;;;5054695;28;20265;-70
2021/04/06 02:16:48;;;;;;;3.70;2.27;;;2.00;99.90;;;;;;5052990;28;20240;-70
2021/04/06 02:19:20;;;;;;;5.43;2.70;;;2.10;99.90;;;;;;5053352;28;20267;-70
2021/04/06 02:21:51;;;;;;;6.70;2.70;;;2.10;99.90;;;;;;5051036;28;20206;-70
2021/04/06 02:24:28;;;;;;;5.73;2.70;;;2.10;99.90;;;;;;5056284;28;20266;-70
2021/04/06 02:27:03;;;;;;;7.33;2.73;;;2.10;99.90;;;;;;5051719;28;20242;-71
2021/04/06 02:29:31;;;;;;;5.57;2.30;;;2.10;99.90;;;;;;5051273;28;20280;-70
2021/04/06 02:31:58;;;;;;;5.67;2.10;;;2.10;99.90;;;;;;5057239;28;20214;-70
2021/04/06 02:34:34;;;;;;;3.57;2.13;;;2.10;99.90;;;;;;5054039;28;20255;-71
2021/04/06 02:37:01;;;;;;;4.37;2.00;;;2.10;99.90;;;;;;5053895;28;20201;-71
2021/04/06 02:39:28;;;;;;;3.17;2.10;;;2.10;99.90;;;;;;5054799;28;20288;-71
2021/04/06 02:41:54;;;;;;;4.90;2.10;;;2.10;99.90;;;;;;5057132;28;20308;-72
2021/04/06 02:44:20;;;;;;;5.13;2.20;;;2.00;99.90;;;;;;5052775;28;20236;-71
2021/04/06 02:46:51;;;;;;;3.90;1.87;;;2.00;99.90;;;;;;5056547;28;20218;-72
2021/04/06 02:49:18;;;;;;;7.00;2.07;;;2.10;99.90;;;;;;5059728;28;20229;-72
2021/04/06 02:51:44;;;;;;;4.93;2.10;;;2.10;99.90;;;;;;5050924;28;20208;-71
2021/04/06 02:54:14;;;;;;;3.33;1.90;;;2.00;99.90;;;;;;5053592;28;20742;-71
2021/04/06 02:56:41;;;;;;;6.03;1.90;;;2.00;99.90;;;;;;5052911;28;20629;-72
2021/04/06 02:59:18;;;;;;;3.37;2.00;;;2.00;99.90;;;;;;5059108;28;20300;-74
2021/04/06 03:01:45;;;;;;;3.63;1.87;;;2.00;99.90;;;;;;5060388;28;20224;-72
2021/04/06 03:04:21;;;;;;;6.40;2.10;;;2.00;99.90;;;;;;5055255;28;20232;-72
2021/04/06 03:06:48;;;;;;;4.07;2.10;;;2.00;99.90;;;;;;5060221;28;20221;-71
2021/04/06 03:09:15;;;;;;;4.13;2.00;;;2.00;99.90;;;;;;5058889;28;20287;-72
2021/04/06 03:11:44;;;;;;;2.50;1.90;;;2.10;99.90;;;;;;5054207;28;20892;-72
2021/04/06 03:14:10;;;;;;;4.10;2.00;;;2.10;99.90;;;;;;5055334;28;20238;-71
2021/04/06 03:16:37;;;;;;;4.87;2.07;;;2.10;99.90;;;;;;5063966;28;20296;-72
2021/04/06 03:19:05;;;;;;;4.77;1.83;;;2.10;99.90;;;;;;5060857;28;20292;-71
2021/04/06 03:21:33;;;;;;;4.03;2.20;;;2.10;99.90;;;;;;5056106;28;20205;-71
2021/04/06 03:24:00;;;;;;;9.60;1.80;;;2.10;99.90;;;;;;5058924;28;20585;-71
2021/04/06 03:26:28;;;;;;;4.87;2.10;;;2.10;99.90;;;;;;5058558;28;20535;-70
2021/04/06 03:28:58;;;;;;;4.20;1.77;;;2.00;99.90;;;;;;5057951;28;20213;-71
2021/04/06 03:31:27;;;;;;;4.40;2.00;;;2.00;99.90;;;;;;5060176;28;20233;-71
2021/04/06 03:33:56;;;;;;;5.97;1.83;;;2.00;99.90;;;;;;5052427;28;20203;-71
2021/04/06 03:36:25;;;;;;;4.17;1.70;;;2.00;99.90;;;;;;5056699;28;20206;-70
2021/04/06 03:38:54;;;;;;;3.43;1.60;;;2.00;99.90;;;;;;5063756;28;20630;-70
2021/04/06 03:41:24;;;;;;;2.60;1.90;;;2.00;99.90;;;;;;5058007;28;20215;-71
2021/04/06 03:43:52;;;;;;;3.20;1.87;;;2.00;99.90;;;;;;5056945;28;20225;-72
2021/04/06 03:46:25;;;;;;;5.67;2.07;;;2.00;99.90;;;;;;5060311;28;20562;-71
2021/04/06 03:48:52;;;;;;;4.00;2.00;;;2.00;99.90;;;;;;5058916;28;20251;-71
2021/04/06 03:51:26;;;;;;;3.70;1.80;;;2.00;99.90;;;;;;5059728;28;20500;-71
2021/04/06 03:53:54;;;;;;;3.60;1.73;;;1.90;99.90;;;;;;5051129;28;20252;-71
2021/04/06 03:56:29;;;;;;;9.67;1.97;;;1.90;99.90;;;;;;5056779;28;20213;-70
2021/04/06 03:58:57;;;;;;;5.03;2.03;;;1.80;99.90;;;;;;5051770;28;20247;-72
2021/04/06 04:01:24;;;;;;;5.13;2.10;;;1.80;99.90;;;;;;5054729;28;20208;-71
2021/04/06 04:03:53;;;;;;;4.67;2.03;;;1.70;99.90;;;;;;5054863;28;20710;-71
2021/04/06 04:06:23;;;;;;;5.57;2.67;;;1.70;99.90;;;;;;5059411;28;20205;-72
2021/04/06 04:08:50;;;;;;;3.50;1.83;;;1.60;99.90;;;;;;5060294;28;20209;-71
2021/04/06 04:11:17;;;;;;;3.60;1.70;;;1.60;99.90;;;;;;5054084;28;20673;-71
2021/04/06 04:13:43;;;;;;;4.17;1.80;;;1.60;99.90;;;;;;5054192;28;20238;-72
2021/04/06 04:16:10;;;;;;;6.90;2.10;;;1.60;99.90;;;;;;5059307;28;20670;-69
2021/04/06 04:18:37;;;;;;;3.93;2.07;;;1.70;99.90;;;;;;5059659;28;20588;-71
2021/04/06 04:21:03;;;;;;;4.37;2.00;;;1.50;99.90;;;;;;5054235;28;20297;-72
2021/04/06 04:23:30;;;;;;;4.40;1.70;;;1.50;99.90;;;;;;5054748;28;20231;-70
2021/04/06 04:25:56;;;;;;;4.47;2.13;;;1.50;99.90;;;;;;5055940;28;20711;-71
2021/04/06 04:28:24;;;;;;;4.70;2.30;;;1.50;99.90;;;;;;5058690;28;20212;-71
2021/04/06 04:30:52;;;;;;;3.83;1.80;;;1.50;99.90;;;;;;5050320;28;20202;-69
2021/04/06 04:33:18;;;;;;;5.00;1.83;;;1.60;99.90;;;;;;5057156;28;20210;-70
2021/04/06 04:35:45;;;;;;;8.47;2.30;;;1.70;99.90;;;;;;5061346;28;20202;-71
2021/04/06 04:38:12;;;;;;;8.07;2.50;;;1.80;99.90;;;;;;5057782;28;20299;-70
2021/04/06 04:40:40;;;;;;;4.30;2.20;;;1.90;99.90;;;;;;5059460;28;20683;-72
2021/04/06 04:43:06;;;;;;;6.67;2.10;;;1.90;99.90;;;;;;5061164;28;20677;-71
2021/04/06 04:45:34;;;;;;;3.77;2.03;;;1.90;99.90;;;;;;5057604;28;20207;-71
2021/04/06 04:48:00;;;;;;;3.47;1.70;;;2.00;99.90;;;;;;5052704;28;20249;-70
2021/04/06 04:50:27;;;;;;;3.80;2.10;;;2.00;99.90;;;;;;5053119;28;20834;-70
2021/04/06 04:52:53;;;;;;;2.43;1.83;;;2.10;99.90;;;;;;5056547;28;20289;-71
2021/04/06 04:55:21;;;;;;;3.53;1.97;;;2.20;99.90;;;;;;5054715;28;20674;-70
2021/04/06 04:57:47;;;;;;;7.13;2.07;;;2.30;99.90;;;;;;5055446;28;20248;-69
2021/04/06 05:00:15;;;;;;;3.37;2.03;;;2.30;99.90;;;;;;5057998;28;20213;-71
2021/04/06 05:02:43;;;;;;;5.97;2.00;;;2.40;99.90;;;;;;5055326;28;20260;-72
2021/04/06 05:05:12;;;;;;;4.63;2.20;;;2.40;99.90;;;;;;5060449;28;20599;-70
2021/04/06 05:07:39;;;;;;;4.13;2.37;;;2.40;99.90;;;;;;5053867;28;20240;-71
2021/04/06 05:10:08;;;;;;;3.03;1.70;;;2.50;99.90;;;;;;5060971;28;20624;-70
2021/04/06 05:12:34;;;;;;;3.97;2.37;;;2.50;99.90;;;;;;5055396;28;20293;-71
2021/04/06 05:15:01;;;;;;;3.93;2.00;;;2.50;99.90;;;;;;5051832;28;20574;-68
2021/04/06 05:17:27;;;;;;;4.93;1.80;;;2.60;99.90;;;;;;5054338;28;20214;-68
2021/04/06 05:19:55;;;;;;;6.23;2.20;;;2.70;99.90;;;;;;5054954;28;20545;-67
2021/04/06 05:22:21;;;;;;;4.10;2.43;;;2.80;99.90;;;;;;5055911;28;20241;-67
2021/04/06 05:24:47;;;;;;;4.23;2.20;;;2.80;99.90;;;;;;5054973;28;20368;-69
2021/04/06 05:27:14;;;;;;;8.17;2.40;;;2.90;99.90;;;;;;5055382;28;20277;-68
2021/04/06 05:29:40;;;;;;;5.03;2.40;;;3.10;99.90;;;;;;5055178;28;20205;-69
2021/04/06 05:32:07;;;;;;;6.53;2.27;;;3.10;99.90;;;;;;5055209;28;20239;-67
2021/04/06 05:34:33;;;;;;;4.77;2.67;;;3.20;99.90;;;;;;5054935;28;20206;-67
2021/04/06 05:37:01;;;;;;;5.10;2.40;;;3.20;99.90;;;;;;5064996;28;20206;-68
2021/04/06 05:39:27;;;;;;;6.50;2.47;;;3.20;99.90;;;;;;5056054;28;20618;-68
2021/04/06 05:41:53;;;;;;;5.43;2.30;;;3.20;99.90;;;;;;5055237;28;20343;-67
2021/04/06 05:44:20;;;;;;;5.00;2.57;;;3.20;99.90;;;;;;5054529;28;20224;-66
2021/04/06 05:46:49;;;;;;;4.87;2.53;;;3.20;99.90;;;;;;5041561;28;20325;-67
2021/04/06 05:49:18;;;;;;;4.70;3.00;;;3.10;99.90;;;;;;5050168;28;20199;-66
2021/04/06 05:51:45;;;;;;;6.57;2.83;;;3.10;99.90;;;;;;5055358;28;20206;-67
2021/04/06 05:54:14;;;;;;;7.97;3.10;;;3.10;99.90;;;;;;5055747;28;20205;-67
2021/04/06 05:56:40;;;;;;;6.37;3.30;;;3.10;99.90;;;;;;5056326;28;20197;-67
2021/04/06 05:59:07;;;;;;;7.30;3.20;;;3.10;99.90;;;;;;5059633;28;20208;-67
2021/04/06 06:01:37;;;;;;;8.47;3.10;;;3.10;99.90;;;;;;5061191;28;20206;-67
2021/04/06 06:04:06;;;;;;;6.60;3.00;;;3.10;99.90;;;;;;5059736;28;20220;-68
2021/04/06 06:06:33;;;;;;;6.03;2.67;;;3.10;99.90;;;;;;5060609;28;20305;-67
2021/04/06 06:09:00;;;;;;;5.53;3.43;;;3.10;99.90;;;;;;5060524;28;20245;-67
2021/04/06 06:11:28;;;;;;;8.13;3.13;;;3.20;99.90;;;;;;5059613;28;20209;-68
2021/04/06 06:13:54;;;;;;;6.57;3.10;;;3.10;99.90;;;;;;5049127;28;20234;-67
2021/04/06 06:16:22;;;;;;;4.07;2.97;;;3.20;99.90;;;;;;5049373;28;20258;-66
2021/04/06 06:19:02;;;;;;;7.63;2.93;;;3.10;99.90;;;;;;5055593;28;20214;-68
2021/04/06 06:21:40;;;;;;;7.07;3.80;;;3.10;99.90;;;;;;5055177;28;20210;-71
2021/04/06 06:24:08;;;;;;;6.27;3.30;;;3.20;99.90;;;;;;5057745;28;20285;-69
2021/04/06 06:26:36;;;;;;;7.00;3.63;;;3.10;99.90;;;;;;5061514;28;20300;-71
2021/04/06 06:29:11;;;;;;;6.10;3.00;;;3.10;99.90;;;;;;5056502;28;20352;-72
2021/04/06 06:31:44;;;;;;;9.57;3.53;;;3.10;99.90;;;;;;5054533;28;20351;-70
2021/04/06 06:34:24;;;;;;;7.83;3.63;;;3.10;99.90;;;;;;5053683;28;20198;-69
2021/04/06 06:37:05;;;;;;;5.43;3.40;;;3.00;99.90;;;;;;5053039;28;20300;-70
2021/04/06 06:39:31;;;;;;;9.53;3.70;;;3.00;99.90;;;;;;5053971;28;20202;-70
2021/04/06 06:42:01;;;;;;;6.27;3.90;;;3.00;99.90;;;;;;5053760;28;20214;-70
2021/04/06 06:44:29;;;;;;;7.10;3.13;;;3.10;99.90;;;;;;5054944;28;20221;-71
2021/04/06 06:47:14;;;;;;;7.60;3.67;;;3.00;99.90;;;;;;5054014;28;20212;-68
2021/04/06 06:49:42;;;;;;;8.17;3.27;;;3.00;99.90;;;;;;5050445;28;20202;-71
2021/04/06 06:52:30;;;;;;;8.20;3.67;;;3.10;99.90;;;;;;5054437;28;20304;-70
2021/04/06 06:55:00;;;;;;;8.13;3.10;;;3.10;99.90;;;;;;5053024;28;20210;-69
2021/04/06 06:57:32;;;;;;;5.07;3.40;;;3.20;99.90;;;;;;5053198;28;20209;-69
2021/04/06 07:00:11;;;;;;;11.17;3.70;;;3.20;99.90;;;;;;5053088;28;20212;-69
2021/04/06 07:02:38;;;;;;;12.70;3.77;;;3.30;99.90;;;;;;5052102;28;20197;-70
2021/04/06 07:05:14;;;;;;;5.70;3.73;;;3.20;99.90;;;;;;5053345;28;20229;-66
2021/04/06 07:08:10;;;;;;;7.40;3.90;;;3.30;99.90;;;;;;5053007;28;20205;-68
2021/04/06 07:10:38;;;;;;;6.07;3.27;;;3.30;99.90;;;;;;5044055;28;20567;-69
2021/04/06 07:13:10;;;;;;;10.53;3.97;;;3.30;99.90;;;;;;5052351;28;20259;-69
2021/04/06 07:15:42;;;;;;;11.67;3.97;;;3.30;99.90;;;;;;5053874;28;20224;-69
2021/04/06 07:18:12;;;;;;;6.63;3.73;;;3.30;99.90;;;;;;5053124;28;20225;-71
2021/04/06 07:20:41;;;;;;;9.70;3.70;;;3.30;99.90;;;;;;5052205;28;20205;-68
2021/04/06 07:23:13;;;;;;;7.33;3.20;;;3.40;99.90;;;;;;5053837;28;20264;-69
2021/04/06 07:25:44;;;;;;;6.37;3.63;;;3.40;99.90;;;;;;5052518;28;20209;-69
2021/04/06 07:28:16;;;;;;;5.63;3.10;;;3.50;99.90;;;;;;5053227;28;20210;-69
2021/04/06 07:30:44;;;;;;;9.30;3.70;;;3.50;99.90;;;;;;5052496;28;20205;-71
2021/04/06 07:33:10;;;;;;;5.17;3.10;;;3.50;99.90;;;;;;5053263;28;20293;-71
2021/04/06 07:35:37;;;;;;;8.70;3.53;;;3.40;99.90;;;;;;5054712;28;20659;-69
2021/04/06 07:38:03;;;;;;;6.33;3.20;;;3.40;99.90;;;;;;5052706;28;20292;-72
2021/04/06 07:40:32;;;;;;;5.73;3.27;;;3.40;99.90;;;;;;5059246;28;20206;-68
2021/04/06 07:42:59;;;;;;;6.67;2.93;;;3.40;99.90;;;;;;5052982;28;20236;-65
2021/04/06 07:45:43;;;;;;;7.53;2.70;;;3.50;99.90;;;;;;5053043;28;20222;-68
2021/04/06 07:48:11;;;;;;;7.83;3.37;;;3.60;99.90;;;;;;5052121;28;20212;-68
2021/04/06 07:50:40;;;;;;;7.00;3.40;;;3.60;99.90;;;;;;5051630;28;20249;-70
2021/04/06 07:53:20;;;;;;;11.17;3.87;;;3.70;99.90;;;;;;5048915;28;20241;-70
2021/04/06 07:55:47;;;;;;;6.50;3.23;;;3.80;99.90;;;;;;5052397;28;20209;-70
2021/04/06 07:58:47;;;;;;;8.57;3.90;;;3.80;99.90;;;;;;5048219;28;20210;-71
2021/04/06 08:01:17;;;;;;;9.33;3.57;;;3.80;99.90;;;;;;5051149;28;20244;-69
2021/04/06 08:04:06;;;;;;;8.27;4.03;;;3.80;99.90;;;;;;5055961;28;20221;-70
2021/04/06 08:06:47;;;;;;;6.07;3.80;;;3.90;99.90;;;;;;5053835;28;20205;-69
2021/04/06 08:09:37;;;;;;;9.40;4.13;;;4.10;99.90;;;;;;5053510;28;20257;-69
2021/04/06 08:12:06;;;;;;;8.43;4.00;;;4.10;99.90;;;;;;5052483;28;20238;-68
2021/04/06 08:14:34;;;;;;;7.73;3.87;;;4.20;99.90;;;;;;5050432;28;20234;-68
2021/04/06 08:17:41;;;;;;;10.77;3.90;;;4.20;99.90;;;;;;5059468;28;20213;-69
2021/04/06 08:20:15;;;;;;;7.30;3.37;;;4.20;99.90;;;;;;5054288;28;20254;-68
2021/04/06 08:22:51;;;;;;;8.77;3.87;;;4.30;99.90;;;;;;5054751;28;20197;-71
2021/04/06 08:25:57;;;;;;;7.07;3.20;;;4.30;99.90;;;;;;5060808;28;20219;-69
2021/04/06 08:28:40;;;;;;;8.27;2.90;;;4.30;99.90;;;;;;5056465;28;20252;-69
2021/04/06 08:31:32;;;;;;;6.83;3.10;;;4.10;99.90;;;;;;5053996;28;20253;-70
2021/04/06 08:34:28;;;;;;;6.80;3.00;;;4.00;99.90;;;;;;5058368;28;20212;-70
2021/04/06 08:37:14;;;;;;;8.20;3.50;;;4.00;99.90;;;;;;5052509;28;20245;-69
2021/04/06 08:39:42;;;;;;;8.43;3.20;;;3.90;99.90;;;;;;5059154;28;20213;-69
2021/04/06 08:42:14;;;;;;;8.27;4.00;;;3.80;99.90;;;;;;5056953;28;20695;-71
2021/04/06 08:44:40;;;;;;;7.20;3.53;;;3.80;99.90;;;;;;5052141;28;20213;-72
2021/04/06 08:47:07;;;;;;;8.30;3.33;;;3.80;99.90;;;;;;5057775;28;20269;-70
2021/04/06 08:49:41;;;;;;;6.93;3.40;;;3.80;99.90;;;;;;5053983;28;20688;-70
2021/04/06 08:52:13;;;;;;;9.03;4.10;;;3.90;99.90;;;;;;5052833;28;20209;-70
2021/04/06 08:54:40;;;;;;;7.70;4.03;;;4.00;99.90;;;;;;5056031;28;20626;-69
2021/04/06 08:57:09;;;;;;;9.67;3.70;;;4.00;99.90;;;;;;5051572;28;20217;-68
2021/04/06 08:59:37;;;;;;;6.27;3.13;;;4.10;99.90;;;;;;5051914;28;20240;-66
2021/04/06 09:02:05;;;;;;;11.37;3.40;;;4.10;99.90;;;;;;5052703;28;20238;-68
2021/04/06 09:04:33;;;;;;;10.67;3.40;;;4.20;99.90;;;;;;5047547;28;20222;-67
2021/04/06 09:07:01;;;;;;;7.63;3.60;;;4.20;99.90;;;;;;5053509;28;20197;-68
2021/04/06 09:09:29;;;;;;;8.87;3.73;;;4.30;99.90;;;;;;5045946;28;20612;-67
2021/04/06 09:11:57;;;;;;;8.53;4.00;;;4.20;99.90;;;;;;5047719;28;20213;-67
2021/04/06 09:14:25;;;;;;;7.90;3.57;;;4.20;99.90;;;;;;5046348;28;20337;-68
2021/04/06 09:16:52;;;;;;;8.50;4.40;;;4.30;99.90;;;;;;5047231;28;20259;-67
2021/04/06 09:19:20;;;;;;;10.70;3.90;;;4.20;99.90;;;;;;5046392;28;20217;-68
2021/04/06 09:21:48;;;;;;;12.77;3.70;;;4.20;99.90;;;;;;5045304;28;20305;-66
2021/04/06 09:24:16;;;;;;;11.73;3.67;;;4.10;99.90;;;;;;5052560;28;20309;-68
2021/04/06 09:26:44;;;;;;;13.60;4.37;;;4.20;99.90;;;;;;5055353;28;20214;-69
2021/04/06 09:29:13;;;;;;;8.87;3.83;;;4.30;99.90;;;;;;5051987;28;20273;-67
2021/04/06 09:31:42;;;;;;;8.73;3.87;;;4.40;99.90;;;;;;5047853;28;20229;-66
2021/04/06 09:34:11;;;;;;;11.87;4.63;;;4.40;99.90;;;;;;5050886;28;20615;-69
2021/04/06 09:36:39;;;;;;;8.03;4.17;;;4.70;99.90;;;;;;5046110;28;20297;-67
2021/04/06 09:39:08;;;;;;;11.43;4.37;;;4.90;99.90;;;;;;5052323;28;20210;-68
2021/04/06 09:41:38;;;;;;;11.63;4.07;;;5.10;99.90;;;;;;5051452;28;20221;-68
2021/04/06 09:44:06;;;;;;;7.73;4.20;;;5.30;99.90;;;;;;5053508;28;20348;-68
2021/04/06 09:46:38;;;;;;;11.50;4.10;;;5.60;99.90;;;;;;5056973;28;20213;-67
2021/04/06 09:49:06;;;;;;;12.33;4.20;;;5.70;99.80;;;;;;5057096;28;20213;-67
2021/04/06 09:51:33;;;;;;;11.83;3.67;;;5.60;99.10;;;;;;5056409;28;20202;-67
2021/04/06 09:54:01;;;;;;;11.40;4.30;;;5.60;98.40;;;;;;5055737;28;20276;-64
2021/04/06 09:56:28;;;;;;;8.70;4.17;;;5.60;97.80;;;;;;5051064;28;20279;-66
2021/04/06 09:58:56;;;;;;;8.43;3.33;;;5.50;97.50;;;;;;5053152;28;20323;-67
2021/04/06 10:01:25;;;;;;;8.10;3.03;;;5.50;97.60;;;;;;5053647;28;20197;-67
2021/04/06 10:03:55;;;;;;;9.27;3.50;;;5.40;96.80;;;;;;5051584;28;20232;-68
2021/04/06 10:06:32;;;;;;;9.63;3.57;;;5.30;96.40;;;;;;5055581;28;20208;-69
2021/04/06 10:08:59;;;;;;;11.73;3.10;;;5.20;96.40;;;;;;5056518;28;20259;-68
2021/04/06 10:11:27;;;;;;;6.97;3.23;;;5.10;96.70;;;;;;5053030;28;20288;-68
2021/04/06 10:13:53;;;;;;;7.80;2.70;;;5.00;96.70;;;;;;5053022;28;20238;-68
2021/04/06 10:16:21;;;;;;;7.67;2.70;;;5.00;97.00;;;;;;5050781;28;20446;-68
2021/04/06 10:18:49;;;;;;;9.07;3.10;;;4.90;97.40;;;;;;5050833;28;20704;-68
2021/04/06 10:21:26;;;;;;;7.67;3.70;;;4.90;98.10;;;;;;5052650;28;20598;-69
2021/04/06 10:24:01;;;;;;;7.97;3.20;;;4.90;98.50;;;;;;5056225;28;20587;-67
2021/04/06 10:26:29;;;;;;;8.43;3.20;;;5.00;98.40;;;;;;5049336;28;20205;-67
2021/04/06 10:29:05;;;;;;;7.33;3.37;;;5.00;97.90;;;;;;5047827;28;20210;-68
2021/04/06 10:31:46;;;;;;;5.30;2.60;;;5.00;97.90;;;;;;5045418;28;20811;-69
2021/04/06 10:34:12;;;;;;;6.63;3.47;;;5.10;97.60;;;;;;5047286;28;20195;-68
2021/04/06 10:36:39;;;;;;;9.17;3.43;;;5.10;97.30;;;;;;5049203;28;20244;-69
2021/04/06 10:39:06;;;;;;;6.37;2.87;;;5.20;97.20;;;;;;5049170;28;20293;-68
2021/04/06 10:41:34;;;;;;;8.27;2.80;;;5.30;97.10;;;;;;5046404;28;20321;-69
2021/04/06 10:44:03;;;;;;;8.93;3.00;;;5.40;96.80;;;;;;5045286;28;20287;-69
2021/04/06 10:46:30;;;;;;;8.93;3.30;;;5.50;96.20;;;;;;5045391;28;20214;-67
2021/04/06 10:49:04;;;;;;;3.40;2.47;;;5.60;96.30;;;;;;5044903;28;20728;-66
2021/04/06 10:51:31;;;;;;;6.47;2.60;;;5.60;96.30;;;;;;5050692;28;20197;-68
2021/04/06 10:54:01;;;;;;;8.80;3.00;;;5.80;96.40;;;;;;5055307;28;20208;-67
2021/04/06 10:56:30;;;;;;;8.23;2.93;;;5.90;95.00;;;;;;5044460;28;20305;-69
2021/04/06 10:58:59;;;;;;;9.33;2.83;;;5.90;93.60;;;;;;5048902;28;20387;-69
2021/04/06 11:01:27;;;;;;;7.33;2.77;;;5.90;93.70;;;;;;5051121;28;20289;-68
2021/04/06 11:03:55;;;;;;;5.37;2.60;;;6.00;93.00;;;;;;5045943;28;20231;-66
2021/04/06 11:06:28;;;;;;;5.13;2.20;;;5.90;92.00;;;;;;5045699;28;20212;-69
2021/04/06 11:08:57;;;;;;;6.37;2.33;;;6.00;91.80;;;;;;5043650;28;20205;-68
2021/04/06 11:11:27;;;;;;;5.13;2.77;;;6.30;92.80;;;;;;5044860;28;20260;-69
2021/04/06 11:13:57;;;;;;;5.07;2.23;;;7.10;92.80;;;;;;5051040;28;20265;-70
2021/04/06 11:16:24;;;;;;;7.67;2.63;;;7.70;88.60;;;;;;5055876;28;20202;-67
2021/04/06 11:19:12;;;;;;;4.20;2.30;;;7.90;82.10;;;;;;5050477;28;20281;-72
2021/04/06 11:21:41;;;;;;;8.60;2.27;;;8.20;84.20;;;;;;5049137;28;20248;-69
2021/04/06 11:24:09;;;;;;;6.93;2.33;;;8.70;76.60;;;;;;5051483;28;21703;-70
2021/04/06 11:26:36;;;;;;;5.23;2.30;;;8.80;70.70;;;;;;5057931;28;20284;-71
2021/04/06 11:29:04;;;;;;;6.77;1.97;;;8.90;67.30;;;;;;5048884;28;20573;-69
2021/04/06 11:31:30;;;;;;;3.93;1.70;;;9.00;64.40;;;;;;5051629;28;20233;-70
2021/04/06 11:33:57;;;;;;;5.00;2.20;;;9.20;62.00;;;;;;5059085;28;20251;-70
2021/04/06 11:36:23;;;;;;;7.03;2.63;;;9.40;60.00;;;;;;5054797;28;20288;-70
2021/04/06 11:38:51;;;;;;;5.83;2.30;;;9.40;57.90;;;;;;5059463;28;20292;-69
2021/04/06 11:41:18;;;;;;;3.77;1.93;;;9.30;56.90;;;;;;5066721;28;20292;-71
2021/04/06 11:43:46;;;;;;;6.80;2.17;;;9.20;56.40;;;;;;5056429;28;20291;-67
2021/04/06 11:46:12;;;;;;;8.03;2.23;;;9.00;55.90;;;;;;5051333;28;20206;-68
2021/04/06 11:48:39;;;;;;;7.13;2.40;;;8.80;56.30;;;;;;5056556;28;20909;-67
2021/04/06 11:51:05;;;;;;;5.27;2.50;;;8.60;56.30;;;;;;5055920;28;20210;-66
2021/04/06 11:53:32;;;;;;;5.33;2.00;;;8.30;56.60;;;;;;5052367;28;20875;-68
2021/04/06 11:55:59;;;;;;;3.00;1.90;;;8.10;55.90;;;;;;5056404;28;20206;-69
2021/04/06 11:58:26;;;;;;;4.23;1.93;;;7.90;55.40;;;;;;5055690;28;20242;-70
2021/04/06 12:00:52;;;;;;;6.63;1.90;;;7.60;54.90;;;;;;5056809;28;20643;-70
2021/04/06 12:03:19;;;;;;;3.67;2.10;;;7.40;54.80;;;;;;5058468;28;20709;-72
2021/04/06 12:05:45;;;;;;;5.63;2.00;;;7.30;55.30;;;;;;5056409;28;20230;-72
2021/04/06 12:08:12;;;;;;;5.40;2.13;;;7.10;55.80;;;;;;5057132;28;20626;-72
2021/04/06 12:10:38;;;;;;;4.37;2.30;;;7.10;56.30;;;;;;5045154;28;20267;-72
2021/04/06 12:13:06;;;;;;;7.07;2.57;;;7.10;57.70;;;;;;5064334;28;20726;-70
2021/04/06 12:15:32;;;;;;;6.83;2.23;;;7.30;57.10;;;;;;5060296;28;20206;-70
2021/04/06 12:17:59;;;;;;;7.07;2.40;;;7.30;56.80;;;;;;5056998;28;20241;-73
2021/04/06 12:20:25;;;;;;;3.97;2.43;;;7.30;56.90;;;;;;5057007;28;20221;-71
2021/04/06 12:22:52;;;;;;;8.07;2.97;;;7.20;57.50;;;;;;5056821;28;20610;-72
2021/04/06 12:25:18;;;;;;;7.03;2.20;;;7.10;56.90;;;;;;5056931;28;20234;-69
2021/04/06 12:27:46;;;;;;;4.43;2.53;;;7.00;56.90;;;;;;5057403;28;20218;-69
2021/04/06 12:30:15;;;;;;;7.33;2.47;;;6.90;57.30;;;;;;5055640;28;20276;-71
2021/04/06 12:32:41;;;;;;;4.50;2.53;;;6.80;57.30;;;;;;5054150;28;20262;-69
2021/04/06 12:35:09;;;;;;;5.03;2.53;;;6.70;57.70;;;;;;5055417;28;20199;-66
2021/04/06 12:37:35;;;;;;;5.00;2.90;;;6.50;58.00;;;;;;5055323;28;20214;-67
2021/04/06 12:40:02;;;;;;;8.60;2.50;;;6.40;58.20;;;;;;5055084;28;20264;-67
2021/04/06 12:42:29;;;;;;;7.27;2.37;;;6.30;58.30;;;;;;5055625;28;20245;-67
2021/04/06 12:44:55;;;;;;;5.63;2.33;;;6.20;58.30;;;;;;5054526;28;20344;-67
2021/04/06 12:47:22;;;;;;;7.40;2.27;;;6.10;58.50;;;;;;5053939;28;20727;-66
2021/04/06 12:49:49;;;;;;;5.87;2.13;;;6.10;58.50;;;;;;5054934;28;20779;-72
2021/04/06 12:52:18;;;;;;;5.83;2.30;;;6.10;58.80;;;;;;5056615;28;20684;-70
2021/04/06 12:54:44;;;;;;;7.03;3.10;;;6.10;59.40;;;;;;5056273;28;20202;-69
2021/04/06 12:57:11;;;;;;;7.70;2.43;;;6.10;59.80;;;;;;5057316;28;20294;-70
2021/04/06 12:59:37;;;;;;;5.53;2.40;;;6.30;59.50;;;;;;5056235;28;20265;-71
2021/04/06 13:02:04;;;;;;;5.10;2.67;;;6.60;59.20;;;;;;5056022;28;20206;-71
2021/04/06 13:04:33;;;;;;;8.17;2.63;;;6.80;58.60;;;;;;5055345;28;20341;-71
2021/04/06 13:07:00;;;;;;;5.63;2.60;;;7.00;58.20;;;;;;5054454;28;20209;-70
2021/04/06 13:09:26;;;;;;;6.73;2.47;;;7.00;57.90;;;;;;5055962;28;20292;-70